EDV5014 KCHS-KLGA
Flight info
| Callsign | EDV5014 |
|---|---|
| Flight time | 1h 23m |
| Altitude | 37000 |
| Route | SWPFX3 FILLI LCAPE Q87 HURTS PROUD2 |
| Aircraft | CRJ9/M-SDFGIRWY/S |
Departure
| Time | 2026-04-26 04:16 |
|---|---|
| Airport | Charleston International Airport (KCHS) |
Arrival
| Time | 2026-04-26 05:40 |
|---|---|
| Airport | LaGuardia Airport (KLGA) |
| Time | Latitude | Longitude | Altitude | Speed | Heading |
|---|---|---|---|---|---|
| 2026-04-26 03:44 | 32.88519 | -80.03525 | 39 ft | 0 kts | 290° |
| 2026-04-26 03:57 | 32.88513 | -80.03510 | 39 ft | 4 kts | 296° |
| 2026-04-26 03:57 | 32.88498 | -80.03485 | 39 ft | 4 kts | 321° |
| 2026-04-26 03:57 | 32.88476 | -80.03476 | 39 ft | 4 kts | 12° |
| 2026-04-26 03:57 | 32.88468 | -80.03480 | 39 ft | 0 kts | 29° |
| 2026-04-26 04:09 | 32.88482 | -80.03470 | 39 ft | 5 kts | 30° |
| 2026-04-26 04:09 | 32.88515 | -80.03451 | 39 ft | 5 kts | 16° |
| 2026-04-26 04:10 | 32.88555 | -80.03458 | 39 ft | 7 kts | 334° |
| 2026-04-26 04:10 | 32.88598 | -80.03487 | 39 ft | 7 kts | 329° |
| 2026-04-26 04:10 | 32.88637 | -80.03527 | 39 ft | 8 kts | 308° |
| 2026-04-26 04:10 | 32.88660 | -80.03586 | 39 ft | 8 kts | 285° |
| 2026-04-26 04:11 | 32.88677 | -80.03647 | 39 ft | 7 kts | 322° |
| 2026-04-26 04:11 | 32.88721 | -80.03649 | 39 ft | 7 kts | 8° |
| 2026-04-26 04:11 | 32.88771 | -80.03641 | 39 ft | 8 kts | 8° |
| 2026-04-26 04:11 | 32.88838 | -80.03629 | 39 ft | 11 kts | 7° |
| 2026-04-26 04:12 | 32.88917 | -80.03617 | 39 ft | 12 kts | 7° |
| 2026-04-26 04:12 | 32.89001 | -80.03603 | 39 ft | 13 kts | 6° |
| 2026-04-26 04:12 | 32.89091 | -80.03599 | 39 ft | 13 kts | 2° |
| 2026-04-26 04:12 | 32.89185 | -80.03595 | 39 ft | 14 kts | 1° |
| 2026-04-26 04:13 | 32.89280 | -80.03592 | 39 ft | 14 kts | 1° |
| 2026-04-26 04:13 | 32.89379 | -80.03589 | 39 ft | 15 kts | 1° |
| 2026-04-26 04:13 | 32.89485 | -80.03586 | 38 ft | 16 kts | 1° |
| 2026-04-26 04:13 | 32.89599 | -80.03581 | 37 ft | 17 kts | 0° |
| 2026-04-26 04:14 | 32.89723 | -80.03578 | 37 ft | 18 kts | 1° |
| 2026-04-26 04:14 | 32.89841 | -80.03573 | 38 ft | 17 kts | 2° |
| 2026-04-26 04:14 | 32.89953 | -80.03553 | 39 ft | 16 kts | 20° |
| 2026-04-26 04:14 | 32.90054 | -80.03500 | 39 ft | 16 kts | 24° |
| 2026-04-26 04:15 | 32.90144 | -80.03467 | 39 ft | 11 kts | 347° |
| 2026-04-26 04:15 | 32.90191 | -80.03535 | 40 ft | 11 kts | 296° |
| 2026-04-26 04:15 | 32.90213 | -80.03605 | 41 ft | 7 kts | 266° |
| 2026-04-26 04:15 | 32.90178 | -80.03647 | 41 ft | 13 kts | 207° |
| 2026-04-26 04:16 | 32.89901 | -80.03798 | 37 ft | 80 kts | 204° |
| 2026-04-26 04:16 | 32.89189 | -80.04182 | 38 ft | 142 kts | 204° |
| 2026-04-26 04:16 | 32.88200 | -80.04751 | 321 ft | 166 kts | 207° |
| 2026-04-26 04:16 | 32.87128 | -80.05420 | 904 ft | 178 kts | 206° |
| 2026-04-26 04:17 | 32.85911 | -80.05755 | 1639 ft | 187 kts | 179° |
| 2026-04-26 04:17 | 32.84623 | -80.05183 | 2074 ft | 221 kts | 147° |
| 2026-04-26 04:17 | 32.83632 | -80.03670 | 2567 ft | 252 kts | 114° |
| 2026-04-26 04:17 | 32.83402 | -80.01568 | 3337 ft | 266 kts | 82° |
| 2026-04-26 04:18 | 32.84174 | -79.99566 | 4187 ft | 275 kts | 50° |
| 2026-04-26 04:18 | 32.85563 | -79.97972 | 5042 ft | 280 kts | 42° |
| 2026-04-26 04:18 | 32.87007 | -79.96363 | 5850 ft | 288 kts | 43° |
| 2026-04-26 04:18 | 32.88488 | -79.94698 | 6592 ft | 297 kts | 41° |
| 2026-04-26 04:19 | 32.90179 | -79.93290 | 7427 ft | 297 kts | 24° |
| 2026-04-26 04:19 | 32.92156 | -79.92568 | 8176 ft | 301 kts | 6° |
| 2026-04-26 04:19 | 32.94226 | -79.92257 | 9000 ft | 303 kts | 4° |
| 2026-04-26 04:19 | 32.96291 | -79.91911 | 10088 ft | 296 kts | 4° |
| 2026-04-26 04:20 | 32.98350 | -79.91655 | 10800 ft | 302 kts | 360° |
| 2026-04-26 04:20 | 33.00502 | -79.91639 | 11224 ft | 316 kts | 354° |
| 2026-04-26 04:20 | 33.02741 | -79.91739 | 11790 ft | 326 kts | 354° |
| 2026-04-26 04:20 | 33.05019 | -79.91860 | 12515 ft | 329 kts | 354° |
| 2026-04-26 04:21 | 33.07337 | -79.92020 | 13149 ft | 337 kts | 353° |
| 2026-04-26 04:21 | 33.09673 | -79.92168 | 13943 ft | 338 kts | 354° |
| 2026-04-26 04:21 | 33.12034 | -79.92315 | 14668 ft | 340 kts | 354° |
| 2026-04-26 04:21 | 33.14399 | -79.92462 | 15378 ft | 341 kts | 354° |
| 2026-04-26 04:22 | 33.16787 | -79.92610 | 15987 ft | 348 kts | 354° |
| 2026-04-26 04:22 | 33.19253 | -79.92765 | 16388 ft | 357 kts | 354° |
| 2026-04-26 04:22 | 33.21741 | -79.92900 | 17057 ft | 361 kts | 357° |
| 2026-04-26 04:22 | 33.24245 | -79.92425 | 17693 ft | 368 kts | 11° |
| 2026-04-26 04:23 | 33.26724 | -79.91601 | 18307 ft | 371 kts | 13° |
| 2026-04-26 04:23 | 33.29200 | -79.90802 | 18772 ft | 374 kts | 9° |
| 2026-04-26 04:23 | 33.31762 | -79.90227 | 19283 ft | 375 kts | 4° |
| 2026-04-26 04:23 | 33.34362 | -79.89906 | 19788 ft | 376 kts | 0° |
| 2026-04-26 04:24 | 33.37017 | -79.89706 | 20305 ft | 379 kts | 360° |
| 2026-04-26 04:24 | 33.39657 | -79.89365 | 20798 ft | 384 kts | 5° |
| 2026-04-26 04:24 | 33.42266 | -79.88761 | 21283 ft | 389 kts | 9° |
| 2026-04-26 04:24 | 33.44913 | -79.87981 | 21760 ft | 393 kts | 11° |
| 2026-04-26 04:25 | 33.47568 | -79.87168 | 22235 ft | 396 kts | 11° |
| 2026-04-26 04:25 | 33.50250 | -79.86366 | 22700 ft | 398 kts | 10° |
| 2026-04-26 04:25 | 33.52958 | -79.85610 | 23155 ft | 401 kts | 9° |
| 2026-04-26 04:25 | 33.55683 | -79.84854 | 23633 ft | 402 kts | 9° |
| 2026-04-26 04:26 | 33.58410 | -79.84098 | 24109 ft | 401 kts | 9° |
| 2026-04-26 04:26 | 33.61131 | -79.83340 | 24568 ft | 401 kts | 9° |
| 2026-04-26 04:26 | 33.63848 | -79.82584 | 25014 ft | 401 kts | 9° |
| 2026-04-26 04:26 | 33.66568 | -79.81830 | 25452 ft | 400 kts | 9° |
| 2026-04-26 04:27 | 33.69282 | -79.81074 | 25883 ft | 400 kts | 9° |
| 2026-04-26 04:27 | 33.71997 | -79.80317 | 26303 ft | 400 kts | 9° |
| 2026-04-26 04:27 | 33.74671 | -79.79572 | 26713 ft | 399 kts | 9° |
| 2026-04-26 04:27 | 33.77396 | -79.78814 | 26899 ft | 404 kts | 9° |
| 2026-04-26 04:28 | 33.80137 | -79.78050 | 27288 ft | 404 kts | 9° |
| 2026-04-26 04:28 | 33.82879 | -79.77284 | 27684 ft | 405 kts | 9° |
| 2026-04-26 04:28 | 33.85630 | -79.76501 | 28065 ft | 405 kts | 10° |
| 2026-04-26 04:28 | 33.88357 | -79.75637 | 28436 ft | 406 kts | 12° |
| 2026-04-26 04:29 | 33.91069 | -79.74658 | 28804 ft | 407 kts | 14° |
| 2026-04-26 04:29 | 33.93776 | -79.73640 | 29169 ft | 407 kts | 13° |
| 2026-04-26 04:29 | 33.96484 | -79.72618 | 29521 ft | 407 kts | 14° |
| 2026-04-26 04:29 | 33.99151 | -79.71611 | 29869 ft | 407 kts | 14° |
| 2026-04-26 04:30 | 34.01859 | -79.70606 | 30170 ft | 407 kts | 13° |
| 2026-04-26 04:30 | 34.04570 | -79.69616 | 30475 ft | 406 kts | 13° |
| 2026-04-26 04:30 | 34.07274 | -79.68627 | 30727 ft | 407 kts | 13° |
| 2026-04-26 04:30 | 34.09996 | -79.67634 | 30840 ft | 412 kts | 13° |
| 2026-04-26 04:31 | 34.12759 | -79.66624 | 30897 ft | 418 kts | 13° |
| 2026-04-26 04:31 | 34.18378 | -79.64569 | 30937 ft | 426 kts | 13° |
| 2026-04-26 04:32 | 34.24120 | -79.62465 | 30950 ft | 435 kts | 13° |
| 2026-04-26 04:32 | 34.29964 | -79.60320 | 30971 ft | 442 kts | 13° |
| 2026-04-26 04:33 | 34.35902 | -79.58136 | 30953 ft | 450 kts | 13° |
| 2026-04-26 04:33 | 34.41932 | -79.55922 | 30943 ft | 456 kts | 13° |
| 2026-04-26 04:34 | 34.48053 | -79.53665 | 30936 ft | 463 kts | 13° |
| 2026-04-26 04:34 | 34.54209 | -79.51376 | 30957 ft | 469 kts | 15° |
| 2026-04-26 04:35 | 34.60178 | -79.47942 | 30951 ft | 480 kts | 27° |
| 2026-04-26 04:35 | 34.65955 | -79.43776 | 30955 ft | 485 kts | 27° |
| 2026-04-26 04:36 | 34.71877 | -79.39788 | 30952 ft | 488 kts | 26° |
| 2026-04-26 04:36 | 34.77860 | -79.35792 | 30954 ft | 492 kts | 27° |
| 2026-04-26 04:37 | 34.83859 | -79.31698 | 30958 ft | 496 kts | 26° |
| 2026-04-26 04:37 | 34.89910 | -79.27597 | 30948 ft | 499 kts | 26° |
| 2026-04-26 04:38 | 34.95947 | -79.23499 | 30939 ft | 501 kts | 26° |
| 2026-04-26 04:38 | 35.02045 | -79.19342 | 30941 ft | 503 kts | 26° |
| 2026-04-26 04:39 | 35.08160 | -79.15168 | 30928 ft | 504 kts | 26° |
| 2026-04-26 04:39 | 35.14302 | -79.10978 | 30931 ft | 505 kts | 26° |
| 2026-04-26 04:40 | 35.20451 | -79.06765 | 30951 ft | 506 kts | 26° |
| 2026-04-26 04:40 | 35.26564 | -79.02585 | 30959 ft | 507 kts | 27° |
| 2026-04-26 04:41 | 35.32720 | -78.98341 | 30937 ft | 508 kts | 27° |
| 2026-04-26 04:41 | 35.38890 | -78.94093 | 30929 ft | 508 kts | 27° |
| 2026-04-26 04:42 | 35.45063 | -78.89843 | 30935 ft | 509 kts | 27° |
| 2026-04-26 04:42 | 35.51239 | -78.85576 | 30933 ft | 509 kts | 27° |
| 2026-04-26 04:43 | 35.57420 | -78.81297 | 30931 ft | 510 kts | 27° |
| 2026-04-26 04:43 | 35.63603 | -78.77013 | 30928 ft | 510 kts | 27° |
| 2026-04-26 04:44 | 35.69780 | -78.72723 | 30923 ft | 510 kts | 27° |
| 2026-04-26 04:44 | 35.75930 | -78.68447 | 30935 ft | 510 kts | 27° |
| 2026-04-26 04:45 | 35.82115 | -78.64134 | 30921 ft | 510 kts | 27° |
| 2026-04-26 04:45 | 35.88304 | -78.59810 | 30932 ft | 510 kts | 27° |
| 2026-04-26 04:46 | 35.94454 | -78.55511 | 30938 ft | 510 kts | 27° |
| 2026-04-26 04:46 | 36.00635 | -78.51181 | 30945 ft | 511 kts | 27° |
| 2026-04-26 04:47 | 36.06811 | -78.46842 | 30947 ft | 511 kts | 27° |
| 2026-04-26 04:47 | 36.12982 | -78.42503 | 30946 ft | 511 kts | 27° |
| 2026-04-26 04:48 | 36.22258 | -78.35964 | 30934 ft | 511 kts | 27° |
| 2026-04-26 04:48 | 36.28450 | -78.31592 | 30927 ft | 512 kts | 27° |
| 2026-04-26 04:49 | 36.34635 | -78.27215 | 30925 ft | 512 kts | 27° |
| 2026-04-26 04:49 | 36.40423 | -78.22166 | 30927 ft | 514 kts | 40° |
| 2026-04-26 04:50 | 36.45543 | -78.15938 | 30922 ft | 516 kts | 44° |
| 2026-04-26 04:50 | 36.50695 | -78.09722 | 30929 ft | 515 kts | 41° |
| 2026-04-26 04:51 | 36.55910 | -78.03610 | 30921 ft | 516 kts | 43° |
| 2026-04-26 04:51 | 36.61127 | -77.97442 | 30982 ft | 516 kts | 42° |
| 2026-04-26 04:52 | 36.66338 | -77.91285 | 30987 ft | 517 kts | 42° |
| 2026-04-26 04:52 | 36.70669 | -77.86148 | 30969 ft | 518 kts | 42° |
| 2026-04-26 04:53 | 36.76738 | -77.78944 | 30952 ft | 518 kts | 42° |
| 2026-04-26 04:53 | 36.81956 | -77.72746 | 30940 ft | 518 kts | 42° |
| 2026-04-26 04:54 | 36.86337 | -77.67524 | 30944 ft | 519 kts | 42° |
| 2026-04-26 04:54 | 36.91526 | -77.61337 | 30937 ft | 519 kts | 42° |
| 2026-04-26 04:55 | 36.96757 | -77.55085 | 30932 ft | 520 kts | 42° |
| 2026-04-26 04:55 | 37.01984 | -77.48832 | 30942 ft | 520 kts | 42° |
| 2026-04-26 04:56 | 37.07205 | -77.42565 | 30958 ft | 521 kts | 42° |
| 2026-04-26 04:56 | 37.12439 | -77.36272 | 30950 ft | 522 kts | 42° |
| 2026-04-26 04:57 | 37.17675 | -77.29972 | 30947 ft | 522 kts | 42° |
| 2026-04-26 04:57 | 37.22912 | -77.23655 | 30944 ft | 522 kts | 42° |
| 2026-04-26 04:58 | 37.28154 | -77.17322 | 30952 ft | 523 kts | 42° |
| 2026-04-26 04:58 | 37.33390 | -77.10973 | 30948 ft | 524 kts | 42° |
| 2026-04-26 04:59 | 37.38602 | -77.04647 | 30950 ft | 524 kts | 42° |
| 2026-04-26 04:59 | 37.43847 | -76.98269 | 30947 ft | 524 kts | 42° |
| 2026-04-26 05:00 | 37.49664 | -76.92875 | 30955 ft | 517 kts | 25° |
| 2026-04-26 05:00 | 37.56130 | -76.88920 | 30955 ft | 516 kts | 22° |
| 2026-04-26 05:01 | 37.62484 | -76.84758 | 30966 ft | 518 kts | 25° |
| 2026-04-26 05:01 | 37.68861 | -76.80484 | 30962 ft | 518 kts | 24° |
| 2026-04-26 05:02 | 37.75241 | -76.76221 | 30954 ft | 519 kts | 24° |
| 2026-04-26 05:02 | 37.81626 | -76.71959 | 30945 ft | 519 kts | 24° |
| 2026-04-26 05:03 | 37.88008 | -76.67677 | 30938 ft | 519 kts | 25° |
| 2026-04-26 05:03 | 37.94432 | -76.63507 | 30940 ft | 519 kts | 22° |
| 2026-04-26 05:04 | 38.00861 | -76.59449 | 30948 ft | 519 kts | 23° |
| 2026-04-26 05:04 | 38.07323 | -76.55332 | 30949 ft | 520 kts | 23° |
| 2026-04-26 05:05 | 38.13791 | -76.51213 | 30962 ft | 520 kts | 23° |
| 2026-04-26 05:05 | 38.20256 | -76.47088 | 30953 ft | 520 kts | 23° |
| 2026-04-26 05:06 | 38.26721 | -76.42953 | 30972 ft | 520 kts | 23° |
| 2026-04-26 05:06 | 38.33188 | -76.38821 | 30983 ft | 519 kts | 22° |
| 2026-04-26 05:07 | 38.39365 | -76.34034 | 30956 ft | 527 kts | 41° |
| 2026-04-26 05:07 | 38.44143 | -76.26927 | 30973 ft | 525 kts | 44° |
| 2026-04-26 05:08 | 38.49746 | -76.21122 | 30873 ft | 518 kts | 32° |
| 2026-04-26 05:08 | 38.52712 | -76.18465 | 30626 ft | 521 kts | 32° |
| 2026-04-26 05:08 | 38.55630 | -76.15705 | 30414 ft | 522 kts | 34° |
| 2026-04-26 05:09 | 38.58493 | -76.12853 | 30175 ft | 522 kts | 35° |
| 2026-04-26 05:09 | 38.61313 | -76.10045 | 29922 ft | 518 kts | 35° |
| 2026-04-26 05:09 | 38.64185 | -76.07198 | 29642 ft | 512 kts | 34° |
| 2026-04-26 05:09 | 38.66979 | -76.04528 | 29366 ft | 504 kts | 33° |
| 2026-04-26 05:10 | 38.69811 | -76.01920 | 29113 ft | 498 kts | 33° |
| 2026-04-26 05:10 | 38.72597 | -75.99328 | 28837 ft | 493 kts | 33° |
| 2026-04-26 05:10 | 38.75352 | -75.96737 | 28582 ft | 489 kts | 33° |
| 2026-04-26 05:10 | 38.78098 | -75.94174 | 28309 ft | 486 kts | 33° |
| 2026-04-26 05:11 | 38.80817 | -75.91623 | 28026 ft | 483 kts | 33° |
| 2026-04-26 05:11 | 38.83526 | -75.89083 | 27768 ft | 480 kts | 33° |
| 2026-04-26 05:11 | 38.86212 | -75.86557 | 27510 ft | 478 kts | 33° |
| 2026-04-26 05:11 | 38.88892 | -75.84039 | 27249 ft | 475 kts | 32° |
| 2026-04-26 05:12 | 38.91557 | -75.81533 | 27004 ft | 473 kts | 33° |
| 2026-04-26 05:12 | 38.94203 | -75.79035 | 26773 ft | 471 kts | 32° |
| 2026-04-26 05:12 | 38.96849 | -75.76552 | 26513 ft | 469 kts | 32° |
| 2026-04-26 05:12 | 38.99484 | -75.74065 | 26267 ft | 469 kts | 32° |
| 2026-04-26 05:13 | 39.02102 | -75.71579 | 26024 ft | 469 kts | 33° |
| 2026-04-26 05:13 | 39.04743 | -75.69080 | 25784 ft | 469 kts | 32° |
| 2026-04-26 05:13 | 39.07335 | -75.66619 | 25549 ft | 469 kts | 32° |
| 2026-04-26 05:13 | 39.09963 | -75.64126 | 25306 ft | 469 kts | 32° |
| 2026-04-26 05:14 | 39.12589 | -75.61634 | 25204 ft | 467 kts | 32° |
| 2026-04-26 05:14 | 39.15199 | -75.59150 | 25141 ft | 464 kts | 32° |
| 2026-04-26 05:14 | 39.17818 | -75.56666 | 24919 ft | 467 kts | 32° |
| 2026-04-26 05:14 | 39.20405 | -75.54200 | 24691 ft | 468 kts | 32° |
| 2026-04-26 05:15 | 39.23027 | -75.51707 | 24462 ft | 467 kts | 32° |
| 2026-04-26 05:15 | 39.25677 | -75.49309 | 24234 ft | 462 kts | 30° |
| 2026-04-26 05:15 | 39.28330 | -75.46993 | 23997 ft | 459 kts | 30° |
| 2026-04-26 05:15 | 39.30958 | -75.44671 | 23782 ft | 456 kts | 30° |
| 2026-04-26 05:16 | 39.33559 | -75.42353 | 23565 ft | 453 kts | 30° |
| 2026-04-26 05:16 | 39.36151 | -75.40067 | 23300 ft | 450 kts | 30° |
| 2026-04-26 05:16 | 39.38722 | -75.37808 | 23047 ft | 441 kts | 30° |
| 2026-04-26 05:16 | 39.41230 | -75.35598 | 22774 ft | 432 kts | 30° |
| 2026-04-26 05:17 | 39.43656 | -75.33440 | 22492 ft | 424 kts | 31° |
| 2026-04-26 05:17 | 39.46059 | -75.31291 | 22171 ft | 415 kts | 31° |
| 2026-04-26 05:17 | 39.48411 | -75.29185 | 21850 ft | 407 kts | 31° |
| 2026-04-26 05:17 | 39.50718 | -75.27124 | 21530 ft | 400 kts | 31° |
| 2026-04-26 05:18 | 39.52981 | -75.25068 | 21221 ft | 393 kts | 32° |
| 2026-04-26 05:18 | 39.55185 | -75.23009 | 20928 ft | 388 kts | 33° |
| 2026-04-26 05:18 | 39.57348 | -75.20981 | 20651 ft | 378 kts | 33° |
| 2026-04-26 05:18 | 39.59451 | -75.19011 | 20405 ft | 368 kts | 33° |
| 2026-04-26 05:19 | 39.61503 | -75.17082 | 20182 ft | 360 kts | 33° |
| 2026-04-26 05:19 | 39.63507 | -75.15204 | 19952 ft | 352 kts | 33° |
| 2026-04-26 05:19 | 39.65476 | -75.13363 | 19730 ft | 345 kts | 33° |
| 2026-04-26 05:19 | 39.67404 | -75.11566 | 19500 ft | 339 kts | 33° |
| 2026-04-26 05:20 | 39.69308 | -75.09804 | 19259 ft | 334 kts | 33° |
| 2026-04-26 05:20 | 39.71229 | -75.08095 | 18829 ft | 335 kts | 31° |
| 2026-04-26 05:20 | 39.73180 | -75.06426 | 18424 ft | 337 kts | 31° |
| 2026-04-26 05:20 | 39.75114 | -75.04767 | 17959 ft | 338 kts | 31° |
| 2026-04-26 05:21 | 39.77076 | -75.03074 | 17488 ft | 338 kts | 31° |
| 2026-04-26 05:21 | 39.79038 | -75.01378 | 17032 ft | 339 kts | 31° |
| 2026-04-26 05:21 | 39.81003 | -74.99685 | 16579 ft | 339 kts | 31° |
| 2026-04-26 05:21 | 39.82971 | -74.97990 | 16136 ft | 339 kts | 31° |
| 2026-04-26 05:22 | 39.84935 | -74.96288 | 15691 ft | 338 kts | 32° |
| 2026-04-26 05:22 | 39.86893 | -74.94589 | 15265 ft | 338 kts | 32° |
| 2026-04-26 05:22 | 39.88834 | -74.92874 | 14836 ft | 337 kts | 32° |
| 2026-04-26 05:22 | 39.90754 | -74.91130 | 14409 ft | 336 kts | 33° |
| 2026-04-26 05:23 | 39.92647 | -74.89345 | 13992 ft | 336 kts | 39° |
| 2026-04-26 05:23 | 39.94301 | -74.87195 | 13533 ft | 336 kts | 47° |
| 2026-04-26 05:23 | 39.95818 | -74.84886 | 13067 ft | 335 kts | 49° |
| 2026-04-26 05:23 | 39.97322 | -74.82570 | 12607 ft | 334 kts | 48° |
| 2026-04-26 05:24 | 39.98836 | -74.80275 | 12152 ft | 333 kts | 47° |
| 2026-04-26 05:24 | 40.00371 | -74.78031 | 11704 ft | 331 kts | 46° |
| 2026-04-26 05:24 | 40.01900 | -74.75840 | 11267 ft | 329 kts | 46° |
| 2026-04-26 05:24 | 40.03439 | -74.73634 | 10824 ft | 328 kts | 46° |
| 2026-04-26 05:25 | 40.04974 | -74.71437 | 10402 ft | 325 kts | 46° |
| 2026-04-26 05:25 | 40.06482 | -74.69269 | 10155 ft | 321 kts | 46° |
| 2026-04-26 05:25 | 40.07977 | -74.67121 | 10050 ft | 317 kts | 46° |
| 2026-04-26 05:25 | 40.09461 | -74.64991 | 9994 ft | 317 kts | 46° |
| 2026-04-26 05:26 | 40.10940 | -74.62860 | 9980 ft | 316 kts | 45° |
| 2026-04-26 05:26 | 40.12418 | -74.60739 | 9968 ft | 314 kts | 45° |
| 2026-04-26 05:26 | 40.13880 | -74.58626 | 9966 ft | 312 kts | 45° |
| 2026-04-26 05:26 | 40.15307 | -74.56570 | 9960 ft | 306 kts | 45° |
| 2026-04-26 05:27 | 40.16725 | -74.54524 | 9949 ft | 299 kts | 45° |
| 2026-04-26 05:27 | 40.18114 | -74.52521 | 9745 ft | 295 kts | 45° |
| 2026-04-26 05:27 | 40.19479 | -74.50552 | 9461 ft | 290 kts | 45° |
| 2026-04-26 05:27 | 40.20874 | -74.48666 | 9201 ft | 286 kts | 42° |
| 2026-04-26 05:28 | 40.22285 | -74.46864 | 8937 ft | 282 kts | 41° |
| 2026-04-26 05:28 | 40.23700 | -74.45108 | 8675 ft | 278 kts | 41° |
| 2026-04-26 05:28 | 40.25075 | -74.43384 | 8404 ft | 275 kts | 41° |
| 2026-04-26 05:28 | 40.26449 | -74.41645 | 8156 ft | 273 kts | 41° |
| 2026-04-26 05:29 | 40.27814 | -74.39916 | 7823 ft | 273 kts | 41° |
| 2026-04-26 05:29 | 40.29182 | -74.38193 | 7503 ft | 272 kts | 42° |
| 2026-04-26 05:29 | 40.30560 | -74.36466 | 7182 ft | 277 kts | 41° |
| 2026-04-26 05:29 | 40.31972 | -74.34711 | 6885 ft | 283 kts | 42° |
| 2026-04-26 05:30 | 40.33419 | -74.32922 | 6575 ft | 288 kts | 43° |
| 2026-04-26 05:30 | 40.34876 | -74.31091 | 6260 ft | 291 kts | 43° |
| 2026-04-26 05:30 | 40.36332 | -74.29250 | 5938 ft | 290 kts | 44° |
| 2026-04-26 05:30 | 40.37782 | -74.27432 | 5616 ft | 287 kts | 45° |
| 2026-04-26 05:31 | 40.39207 | -74.25608 | 5301 ft | 283 kts | 46° |
| 2026-04-26 05:31 | 40.40594 | -74.23828 | 5055 ft | 273 kts | 46° |
| 2026-04-26 05:31 | 40.41928 | -74.22116 | 4822 ft | 264 kts | 47° |
| 2026-04-26 05:31 | 40.43217 | -74.20479 | 4568 ft | 257 kts | 47° |
| 2026-04-26 05:32 | 40.44500 | -74.18849 | 4346 ft | 255 kts | 47° |
| 2026-04-26 05:32 | 40.45775 | -74.17222 | 4105 ft | 259 kts | 47° |
| 2026-04-26 05:32 | 40.47063 | -74.15541 | 3874 ft | 260 kts | 47° |
| 2026-04-26 05:32 | 40.48348 | -74.13868 | 3645 ft | 257 kts | 47° |
| 2026-04-26 05:33 | 40.49612 | -74.12224 | 3424 ft | 254 kts | 47° |
| 2026-04-26 05:33 | 40.50869 | -74.10611 | 3197 ft | 251 kts | 47° |
| 2026-04-26 05:33 | 40.52127 | -74.09064 | 3070 ft | 243 kts | 42° |
| 2026-04-26 05:33 | 40.53462 | -74.07851 | 3012 ft | 229 kts | 36° |
| 2026-04-26 05:34 | 40.54781 | -74.06806 | 2999 ft | 212 kts | 35° |
| 2026-04-26 05:34 | 40.55969 | -74.05804 | 3002 ft | 198 kts | 39° |
| 2026-04-26 05:34 | 40.57114 | -74.04786 | 3007 ft | 200 kts | 38° |
| 2026-04-26 05:34 | 40.58284 | -74.03748 | 3021 ft | 205 kts | 38° |
| 2026-04-26 05:35 | 40.59482 | -74.02708 | 3020 ft | 207 kts | 37° |
| 2026-04-26 05:35 | 40.60700 | -74.01696 | 3023 ft | 207 kts | 36° |
| 2026-04-26 05:35 | 40.61928 | -74.00707 | 3019 ft | 205 kts | 36° |
| 2026-04-26 05:35 | 40.63132 | -73.99720 | 3013 ft | 200 kts | 36° |
| 2026-04-26 05:36 | 40.64266 | -73.98803 | 3007 ft | 181 kts | 36° |
| 2026-04-26 05:36 | 40.65280 | -73.97998 | 2983 ft | 161 kts | 38° |
| 2026-04-26 05:36 | 40.66286 | -73.97165 | 2721 ft | 181 kts | 38° |
| 2026-04-26 05:36 | 40.67399 | -73.96243 | 2454 ft | 195 kts | 37° |
| 2026-04-26 05:37 | 40.68533 | -73.95302 | 2159 ft | 188 kts | 36° |
| 2026-04-26 05:37 | 40.69585 | -73.94446 | 1909 ft | 168 kts | 36° |
| 2026-04-26 05:37 | 40.70524 | -73.93681 | 1650 ft | 148 kts | 36° |
| 2026-04-26 05:37 | 40.71360 | -73.92993 | 1455 ft | 140 kts | 37° |
| 2026-04-26 05:38 | 40.72200 | -73.92342 | 1189 ft | 139 kts | 36° |
| 2026-04-26 05:38 | 40.73015 | -73.91674 | 1026 ft | 137 kts | 35° |
| 2026-04-26 05:38 | 40.73817 | -73.90988 | 828 ft | 137 kts | 36° |
| 2026-04-26 05:38 | 40.74638 | -73.90321 | 655 ft | 139 kts | 36° |
| 2026-04-26 05:39 | 40.75456 | -73.89632 | 434 ft | 139 kts | 34° |
| 2026-04-26 05:39 | 40.76266 | -73.88950 | 213 ft | 136 kts | 35° |
| 2026-04-26 05:39 | 40.77072 | -73.88305 | 36 ft | 132 kts | 35° |
| 2026-04-26 05:39 | 40.77743 | -73.87729 | 22 ft | 90 kts | 32° |
| 2026-04-26 05:40 | 40.78146 | -73.87397 | 12 ft | 48 kts | 32° |
| 2026-04-26 05:40 | 40.78387 | -73.87204 | 16 ft | 37 kts | 33° |
| 2026-04-26 05:40 | 40.78508 | -73.87101 | 17 ft | 26 kts | 33° |
| 2026-04-26 05:40 | 40.78526 | -73.87023 | 17 ft | 1 kts | 130° |
| 2026-04-26 05:41 | 40.78500 | -73.87012 | 17 ft | 6 kts | 177° |
| 2026-04-26 05:41 | 40.78451 | -73.87010 | 20 ft | 7 kts | 185° |
| 2026-04-26 05:41 | 40.78420 | -73.87026 | 17 ft | 7 kts | 211° |
| 2026-04-26 05:41 | 40.78372 | -73.87063 | 18 ft | 9 kts | 212° |
| 2026-04-26 05:42 | 40.78317 | -73.87109 | 17 ft | 10 kts | 211° |
| 2026-04-26 05:42 | 40.78252 | -73.87162 | 17 ft | 12 kts | 213° |
| 2026-04-26 05:42 | 40.78178 | -73.87224 | 15 ft | 13 kts | 212° |
| 2026-04-26 05:42 | 40.78101 | -73.87288 | 17 ft | 11 kts | 212° |
| 2026-04-26 05:43 | 40.78031 | -73.87345 | 12 ft | 10 kts | 212° |
| 2026-04-26 05:43 | 40.77973 | -73.87392 | 12 ft | 10 kts | 211° |
| 2026-04-26 05:43 | 40.77915 | -73.87411 | 13 ft | 8 kts | 152° |
| 2026-04-26 05:43 | 40.77877 | -73.87348 | 12 ft | 10 kts | 122° |
| 2026-04-26 05:44 | 40.77837 | -73.87266 | 12 ft | 11 kts | 123° |
| 2026-04-26 05:44 | 40.77793 | -73.87176 | 12 ft | 12 kts | 122° |
| 2026-04-26 05:44 | 40.77747 | -73.87080 | 12 ft | 13 kts | 122° |
| 2026-04-26 05:44 | 40.77697 | -73.86974 | 11 ft | 14 kts | 122° |
| 2026-04-26 05:45 | 40.77644 | -73.86862 | 10 ft | 15 kts | 123° |
| 2026-04-26 05:45 | 40.77597 | -73.86764 | 10 ft | 11 kts | 122° |
| 2026-04-26 05:45 | 40.77553 | -73.86672 | 10 ft | 12 kts | 122° |
| 2026-04-26 05:45 | 40.77513 | -73.86592 | 10 ft | 9 kts | 133° |
| 2026-04-26 05:46 | 40.77452 | -73.86572 | 10 ft | 8 kts | 180° |
| 2026-04-26 05:46 | 40.77415 | -73.86540 | 11 ft | 4 kts | 135° |
| 2026-04-26 05:46 | 40.77408 | -73.86537 | 11 ft | 1 kts | 174° |
| 2026-04-26 05:46 | 40.77400 | -73.86539 | 12 ft | 1 kts | 205° |
| 2026-04-26 05:47 | 40.77396 | -73.86543 | 13 ft | 3 kts | 216° |
| 2026-04-26 05:47 | 40.77382 | -73.86558 | 15 ft | 0 kts | 219° |
| 2026-04-26 05:47 | 40.77359 | -73.86582 | 17 ft | 9 kts | 219° |
| 2026-04-26 05:47 | 40.77308 | -73.86641 | 19 ft | 9 kts | 223° |
| 2026-04-26 05:48 | 40.77273 | -73.86682 | 18 ft | 5 kts | 219° |
| 2026-04-26 05:48 | 40.77245 | -73.86688 | 18 ft | 4 kts | 152° |
| 2026-04-26 05:48 | 40.77224 | -73.86664 | 18 ft | 4 kts | 134° |
| 2026-04-26 05:48 | 40.77218 | -73.86655 | 18 ft | 0 kts | 133° |